sensor_id;sensor_type;location;lat;lon;timestamp;temperature;humidity
16976;DHT22;8604;48.148;-1.786;2022-09-09T00:01:28;16.10;99.90
16976;DHT22;8604;48.148;-1.786;2022-09-09T00:04:05;16.10;99.90
16976;DHT22;8604;48.148;-1.786;2022-09-09T00:06:42;16.10;99.90
16976;DHT22;8604;48.148;-1.786;2022-09-09T00:09:14;16.00;99.90
16976;DHT22;8604;48.148;-1.786;2022-09-09T00:11:47;16.00;99.90
16976;DHT22;8604;48.148;-1.786;2022-09-09T00:14:23;16.00;99.90
16976;DHT22;8604;48.148;-1.786;2022-09-09T00:16:56;16.00;99.90
16976;DHT22;8604;48.148;-1.786;2022-09-09T00:19:35;16.00;99.90
16976;DHT22;8604;48.148;-1.786;2022-09-09T00:22:14;16.00;99.90
16976;DHT22;8604;48.148;-1.786;2022-09-09T00:24:46;16.00;99.90
16976;DHT22;8604;48.148;-1.786;2022-09-09T00:27:21;15.90;99.90
16976;DHT22;8604;48.148;-1.786;2022-09-09T00:29:56;15.90;99.90
16976;DHT22;8604;48.148;-1.786;2022-09-09T00:32:29;15.90;99.90
16976;DHT22;8604;48.148;-1.786;2022-09-09T00:35:03;15.90;99.90
16976;DHT22;8604;48.148;-1.786;2022-09-09T00:37:32;15.90;99.90
16976;DHT22;8604;48.148;-1.786;2022-09-09T00:40:18;15.90;99.90
16976;DHT22;8604;48.148;-1.786;2022-09-09T00:42:54;15.90;99.90
16976;DHT22;8604;48.148;-1.786;2022-09-09T00:45:55;15.90;99.90
16976;DHT22;8604;48.148;-1.786;2022-09-09T00:48:33;15.90;99.90
16976;DHT22;8604;48.148;-1.786;2022-09-09T00:51:09;15.90;99.90
16976;DHT22;8604;48.148;-1.786;2022-09-09T00:54:07;15.80;99.90
16976;DHT22;8604;48.148;-1.786;2022-09-09T00:56:46;15.80;99.90
16976;DHT22;8604;48.148;-1.786;2022-09-09T00:59:24;15.80;99.90
16976;DHT22;8604;48.148;-1.786;2022-09-09T01:01:56;15.80;99.90
16976;DHT22;8604;48.148;-1.786;2022-09-09T01:04:32;15.80;99.90
16976;DHT22;8604;48.148;-1.786;2022-09-09T01:07:10;15.70;99.90
16976;DHT22;8604;48.148;-1.786;2022-09-09T01:09:50;15.70;99.90
16976;DHT22;8604;48.148;-1.786;2022-09-09T01:12:28;15.70;99.90
16976;DHT22;8604;48.148;-1.786;2022-09-09T01:15:04;15.70;99.90
16976;DHT22;8604;48.148;-1.786;2022-09-09T01:17:50;15.70;99.90
16976;DHT22;8604;48.148;-1.786;2022-09-09T01:20:23;15.60;99.90
16976;DHT22;8604;48.148;-1.786;2022-09-09T01:23:18;15.60;99.90
16976;DHT22;8604;48.148;-1.786;2022-09-09T01:26:26;15.60;99.90
16976;DHT22;8604;48.148;-1.786;2022-09-09T01:29:00;15.60;99.90
16976;DHT22;8604;48.148;-1.786;2022-09-09T01:31:38;15.60;99.90
16976;DHT22;8604;48.148;-1.786;2022-09-09T01:34:10;15.50;99.90
16976;DHT22;8604;48.148;-1.786;2022-09-09T01:36:44;15.50;99.90
16976;DHT22;8604;48.148;-1.786;2022-09-09T01:39:13;15.60;99.90
16976;DHT22;8604;48.148;-1.786;2022-09-09T01:41:44;15.60;99.90
16976;DHT22;8604;48.148;-1.786;2022-09-09T01:44:16;15.60;99.90
16976;DHT22;8604;48.148;-1.786;2022-09-09T01:46:45;15.60;99.90
16976;DHT22;8604;48.148;-1.786;2022-09-09T01:49:27;15.50;99.90
16976;DHT22;8604;48.148;-1.786;2022-09-09T01:51:57;15.50;99.90
16976;DHT22;8604;48.148;-1.786;2022-09-09T01:54:32;15.60;99.90
16976;DHT22;8604;48.148;-1.786;2022-09-09T01:57:15;15.60;99.90
16976;DHT22;8604;48.148;-1.786;2022-09-09T02:00:00;15.50;99.90
16976;DHT22;8604;48.148;-1.786;2022-09-09T02:02:46;15.50;99.90
16976;DHT22;8604;48.148;-1.786;2022-09-09T02:05:30;15.50;99.90
16976;DHT22;8604;48.148;-1.786;2022-09-09T02:08:06;15.50;99.90
16976;DHT22;8604;48.148;-1.786;2022-09-09T02:10:55;15.50;99.90
16976;DHT22;8604;48.148;-1.786;2022-09-09T02:13:38;15.50;99.90
16976;DHT22;8604;48.148;-1.786;2022-09-09T02:16:13;15.50;99.90
16976;DHT22;8604;48.148;-1.786;2022-09-09T02:18:49;15.50;99.90
16976;DHT22;8604;48.148;-1.786;2022-09-09T02:21:26;15.50;99.90
16976;DHT22;8604;48.148;-1.786;2022-09-09T02:23:58;15.50;99.90
16976;DHT22;8604;48.148;-1.786;2022-09-09T02:26:29;15.50;99.90
16976;DHT22;8604;48.148;-1.786;2022-09-09T02:29:06;15.60;99.90
16976;DHT22;8604;48.148;-1.786;2022-09-09T02:31:36;15.60;99.90
16976;DHT22;8604;48.148;-1.786;2022-09-09T02:34:09;15.60;99.90
16976;DHT22;8604;48.148;-1.786;2022-09-09T02:36:40;15.60;99.90
16976;DHT22;8604;48.148;-1.786;2022-09-09T02:39:10;15.60;99.90
16976;DHT22;8604;48.148;-1.786;2022-09-09T02:41:41;15.70;99.90
16976;DHT22;8604;48.148;-1.786;2022-09-09T02:44:12;15.70;99.90
16976;DHT22;8604;48.148;-1.786;2022-09-09T02:46:53;15.70;99.90
16976;DHT22;8604;48.148;-1.786;2022-09-09T02:49:30;15.70;99.90
16976;DHT22;8604;48.148;-1.786;2022-09-09T02:52:06;15.70;99.90
16976;DHT22;8604;48.148;-1.786;2022-09-09T02:54:38;15.80;99.90
16976;DHT22;8604;48.148;-1.786;2022-09-09T02:57:12;15.80;99.90
16976;DHT22;8604;48.148;-1.786;2022-09-09T02:59:43;15.80;99.90
16976;DHT22;8604;48.148;-1.786;2022-09-09T03:02:12;15.70;99.90
16976;DHT22;8604;48.148;-1.786;2022-09-09T03:04:43;15.80;99.90
16976;DHT22;8604;48.148;-1.786;2022-09-09T03:07:19;15.80;99.90
16976;DHT22;8604;48.148;-1.786;2022-09-09T03:09:50;15.80;99.90
16976;DHT22;8604;48.148;-1.786;2022-09-09T03:12:24;15.90;99.90
16976;DHT22;8604;48.148;-1.786;2022-09-09T03:14:53;15.90;99.90
16976;DHT22;8604;48.148;-1.786;2022-09-09T03:17:22;15.90;99.90
16976;DHT22;8604;48.148;-1.786;2022-09-09T03:19:53;15.90;99.90
16976;DHT22;8604;48.148;-1.786;2022-09-09T03:22:23;15.90;99.90
16976;DHT22;8604;48.148;-1.786;2022-09-09T03:24:52;15.90;99.90
16976;DHT22;8604;48.148;-1.786;2022-09-09T03:27:21;15.80;99.90
16976;DHT22;8604;48.148;-1.786;2022-09-09T03:29:52;15.90;99.90
16976;DHT22;8604;48.148;-1.786;2022-09-09T03:32:23;15.90;99.90
16976;DHT22;8604;48.148;-1.786;2022-09-09T03:34:55;15.90;99.90
16976;DHT22;8604;48.148;-1.786;2022-09-09T03:37:24;15.80;99.90
16976;DHT22;8604;48.148;-1.786;2022-09-09T03:39:53;15.80;99.90
16976;DHT22;8604;48.148;-1.786;2022-09-09T03:42:23;15.80;99.90
16976;DHT22;8604;48.148;-1.786;2022-09-09T03:44:54;15.80;99.90
16976;DHT22;8604;48.148;-1.786;2022-09-09T03:47:25;15.80;99.90
16976;DHT22;8604;48.148;-1.786;2022-09-09T03:49:59;15.70;99.90
16976;DHT22;8604;48.148;-1.786;2022-09-09T03:52:28;15.70;99.90
16976;DHT22;8604;48.148;-1.786;2022-09-09T03:54:57;15.70;99.90
16976;DHT22;8604;48.148;-1.786;2022-09-09T03:57:27;15.70;99.90
16976;DHT22;8604;48.148;-1.786;2022-09-09T03:59:58;15.70;99.90
16976;DHT22;8604;48.148;-1.786;2022-09-09T04:02:31;15.60;99.90
16976;DHT22;8604;48.148;-1.786;2022-09-09T04:05:00;15.70;99.90
16976;DHT22;8604;48.148;-1.786;2022-09-09T04:07:28;15.70;99.90
16976;DHT22;8604;48.148;-1.786;2022-09-09T04:09:57;15.60;99.90
16976;DHT22;8604;48.148;-1.786;2022-09-09T04:12:25;15.60;99.90
16976;DHT22;8604;48.148;-1.786;2022-09-09T04:14:53;15.60;99.90
16976;DHT22;8604;48.148;-1.786;2022-09-09T04:17:23;15.60;99.90
16976;DHT22;8604;48.148;-1.786;2022-09-09T04:19:52;15.60;99.90
16976;DHT22;8604;48.148;-1.786;2022-09-09T04:22:21;15.60;99.90
16976;DHT22;8604;48.148;-1.786;2022-09-09T04:24:50;15.60;99.90
16976;DHT22;8604;48.148;-1.786;2022-09-09T04:27:19;15.60;99.90
16976;DHT22;8604;48.148;-1.786;2022-09-09T04:29:48;15.50;99.90
16976;DHT22;8604;48.148;-1.786;2022-09-09T04:32:16;15.50;99.90
16976;DHT22;8604;48.148;-1.786;2022-09-09T04:34:47;15.50;99.90
16976;DHT22;8604;48.148;-1.786;2022-09-09T04:37:15;15.50;99.90
16976;DHT22;8604;48.148;-1.786;2022-09-09T04:39:44;15.50;99.90
16976;DHT22;8604;48.148;-1.786;2022-09-09T04:42:12;15.50;99.90
16976;DHT22;8604;48.148;-1.786;2022-09-09T04:44:42;15.50;99.90
16976;DHT22;8604;48.148;-1.786;2022-09-09T04:47:25;15.50;99.90
16976;DHT22;8604;48.148;-1.786;2022-09-09T04:49:55;15.40;99.90
16976;DHT22;8604;48.148;-1.786;2022-09-09T04:52:25;15.50;99.90
16976;DHT22;8604;48.148;-1.786;2022-09-09T04:54:53;15.50;99.90
16976;DHT22;8604;48.148;-1.786;2022-09-09T04:57:22;15.50;99.90
16976;DHT22;8604;48.148;-1.786;2022-09-09T05:00:12;15.40;99.90
16976;DHT22;8604;48.148;-1.786;2022-09-09T05:02:41;15.40;99.90
16976;DHT22;8604;48.148;-1.786;2022-09-09T05:05:11;15.40;99.90
16976;DHT22;8604;48.148;-1.786;2022-09-09T05:07:40;15.40;99.90
16976;DHT22;8604;48.148;-1.786;2022-09-09T05:10:09;15.40;99.90
16976;DHT22;8604;48.148;-1.786;2022-09-09T05:12:37;15.40;99.90
16976;DHT22;8604;48.148;-1.786;2022-09-09T05:15:07;15.40;99.90
16976;DHT22;8604;48.148;-1.786;2022-09-09T05:17:35;15.40;99.90
16976;DHT22;8604;48.148;-1.786;2022-09-09T05:20:04;15.40;99.90
16976;DHT22;8604;48.148;-1.786;2022-09-09T05:22:38;15.40;99.90
16976;DHT22;8604;48.148;-1.786;2022-09-09T05:25:08;15.40;99.90
16976;DHT22;8604;48.148;-1.786;2022-09-09T05:27:36;15.40;99.90
16976;DHT22;8604;48.148;-1.786;2022-09-09T05:30:06;15.40;99.90
16976;DHT22;8604;48.148;-1.786;2022-09-09T05:32:35;15.40;99.90
16976;DHT22;8604;48.148;-1.786;2022-09-09T05:35:04;15.30;99.90
16976;DHT22;8604;48.148;-1.786;2022-09-09T05:37:32;15.40;99.90
16976;DHT22;8604;48.148;-1.786;2022-09-09T05:40:04;15.30;99.90
16976;DHT22;8604;48.148;-1.786;2022-09-09T05:42:32;15.30;99.90
16976;DHT22;8604;48.148;-1.786;2022-09-09T05:45:01;15.30;99.90
16976;DHT22;8604;48.148;-1.786;2022-09-09T05:47:32;15.30;99.90
16976;DHT22;8604;48.148;-1.786;2022-09-09T05:50:12;15.30;99.90
16976;DHT22;8604;48.148;-1.786;2022-09-09T05:53:12;15.30;99.90
16976;DHT22;8604;48.148;-1.786;2022-09-09T05:55:58;15.40;99.90
16976;DHT22;8604;48.148;-1.786;2022-09-09T05:58:29;15.40;99.90
16976;DHT22;8604;48.148;-1.786;2022-09-09T06:01:03;15.30;99.90
16976;DHT22;8604;48.148;-1.786;2022-09-09T06:03:45;15.40;99.90
16976;DHT22;8604;48.148;-1.786;2022-09-09T06:06:23;15.40;99.90
16976;DHT22;8604;48.148;-1.786;2022-09-09T06:09:05;15.40;99.90
16976;DHT22;8604;48.148;-1.786;2022-09-09T06:11:46;15.40;99.90
16976;DHT22;8604;48.148;-1.786;2022-09-09T06:14:58;15.40;99.90
16976;DHT22;8604;48.148;-1.786;2022-09-09T06:17:38;15.40;99.90
16976;DHT22;8604;48.148;-1.786;2022-09-09T06:20:09;15.40;99.90
16976;DHT22;8604;48.148;-1.786;2022-09-09T06:22:41;15.40;99.90
16976;DHT22;8604;48.148;-1.786;2022-09-09T06:25:26;15.50;99.90
16976;DHT22;8604;48.148;-1.786;2022-09-09T06:28:08;15.40;99.90
16976;DHT22;8604;48.148;-1.786;2022-09-09T06:30:46;15.50;99.90
16976;DHT22;8604;48.148;-1.786;2022-09-09T06:33:30;15.50;99.90
16976;DHT22;8604;48.148;-1.786;2022-09-09T06:36:15;15.60;99.90
16976;DHT22;8604;48.148;-1.786;2022-09-09T06:39:07;15.60;99.90
16976;DHT22;8604;48.148;-1.786;2022-09-09T06:41:45;15.60;99.90
16976;DHT22;8604;48.148;-1.786;2022-09-09T06:44:40;15.70;99.90
16976;DHT22;8604;48.148;-1.786;2022-09-09T06:47:36;15.70;99.90
16976;DHT22;8604;48.148;-1.786;2022-09-09T06:50:06;15.70;99.90
16976;DHT22;8604;48.148;-1.786;2022-09-09T06:52:39;15.70;99.90
16976;DHT22;8604;48.148;-1.786;2022-09-09T06:55:09;15.80;99.90
16976;DHT22;8604;48.148;-1.786;2022-09-09T06:57:38;15.90;99.90
16976;DHT22;8604;48.148;-1.786;2022-09-09T07:00:14;16.00;99.90
16976;DHT22;8604;48.148;-1.786;2022-09-09T07:02:42;16.10;99.90
16976;DHT22;8604;48.148;-1.786;2022-09-09T07:05:24;16.30;99.90
16976;DHT22;8604;48.148;-1.786;2022-09-09T07:10:37;16.60;99.90
16976;DHT22;8604;48.148;-1.786;2022-09-09T07:13:06;16.70;99.90
16976;DHT22;8604;48.148;-1.786;2022-09-09T07:15:36;16.80;99.90
16976;DHT22;8604;48.148;-1.786;2022-09-09T07:18:09;16.90;99.90
16976;DHT22;8604;48.148;-1.786;2022-09-09T07:20:38;16.90;99.90
16976;DHT22;8604;48.148;-1.786;2022-09-09T07:23:06;17.00;99.90
16976;DHT22;8604;48.148;-1.786;2022-09-09T07:25:35;17.00;99.90
16976;DHT22;8604;48.148;-1.786;2022-09-09T07:28:03;17.10;99.90
16976;DHT22;8604;48.148;-1.786;2022-09-09T07:30:32;17.10;99.90
16976;DHT22;8604;48.148;-1.786;2022-09-09T07:33:03;17.10;99.90
16976;DHT22;8604;48.148;-1.786;2022-09-09T07:36:09;17.20;99.90
16976;DHT22;8604;48.148;-1.786;2022-09-09T07:38:39;17.30;99.90
16976;DHT22;8604;48.148;-1.786;2022-09-09T07:41:09;17.30;99.90
16976;DHT22;8604;48.148;-1.786;2022-09-09T07:44:04;17.30;99.90
16976;DHT22;8604;48.148;-1.786;2022-09-09T07:46:35;17.20;99.90
16976;DHT22;8604;48.148;-1.786;2022-09-09T07:49:06;17.40;99.90
16976;DHT22;8604;48.148;-1.786;2022-09-09T07:51:37;17.90;99.90
16976;DHT22;8604;48.148;-1.786;2022-09-09T07:54:09;18.00;99.90
16976;DHT22;8604;48.148;-1.786;2022-09-09T07:56:41;18.70;99.90
16976;DHT22;8604;48.148;-1.786;2022-09-09T07:59:11;19.50;99.90
16976;DHT22;8604;48.148;-1.786;2022-09-09T08:01:44;19.60;99.90
16976;DHT22;8604;48.148;-1.786;2022-09-09T08:04:19;19.30;99.90
16976;DHT22;8604;48.148;-1.786;2022-09-09T08:06:50;19.10;99.90
16976;DHT22;8604;48.148;-1.786;2022-09-09T08:09:21;18.90;99.90
16976;DHT22;8604;48.148;-1.786;2022-09-09T08:11:52;18.80;99.90
16976;DHT22;8604;48.148;-1.786;2022-09-09T08:14:21;18.70;99.90
16976;DHT22;8604;48.148;-1.786;2022-09-09T08:16:50;18.70;99.90
16976;DHT22;8604;48.148;-1.786;2022-09-09T08:19:24;18.50;99.90
16976;DHT22;8604;48.148;-1.786;2022-09-09T08:21:53;18.50;99.90
16976;DHT22;8604;48.148;-1.786;2022-09-09T08:24:22;18.40;99.90
16976;DHT22;8604;48.148;-1.786;2022-09-09T08:27:00;18.30;99.90
16976;DHT22;8604;48.148;-1.786;2022-09-09T08:29:44;18.30;99.90
16976;DHT22;8604;48.148;-1.786;2022-09-09T08:32:13;18.30;99.90
16976;DHT22;8604;48.148;-1.786;2022-09-09T08:34:46;18.30;99.90
16976;DHT22;8604;48.148;-1.786;2022-09-09T08:37:45;18.30;99.90
16976;DHT22;8604;48.148;-1.786;2022-09-09T08:40:23;18.30;99.90
16976;DHT22;8604;48.148;-1.786;2022-09-09T08:42:56;18.40;99.90
16976;DHT22;8604;48.148;-1.786;2022-09-09T08:45:33;18.40;99.90
16976;DHT22;8604;48.148;-1.786;2022-09-09T08:48:19;18.50;99.90
16976;DHT22;8604;48.148;-1.786;2022-09-09T08:50:52;18.50;99.90
16976;DHT22;8604;48.148;-1.786;2022-09-09T08:53:29;18.70;99.90
16976;DHT22;8604;48.148;-1.786;2022-09-09T08:56:11;19.30;99.90
16976;DHT22;8604;48.148;-1.786;2022-09-09T08:58:48;19.80;99.90
16976;DHT22;8604;48.148;-1.786;2022-09-09T09:01:45;19.90;99.90
16976;DHT22;8604;48.148;-1.786;2022-09-09T09:04:38;20.00;99.90
16976;DHT22;8604;48.148;-1.786;2022-09-09T09:07:18;20.00;99.90
16976;DHT22;8604;48.148;-1.786;2022-09-09T09:10:15;20.00;99.90
16976;DHT22;8604;48.148;-1.786;2022-09-09T09:13:14;20.10;99.90
16976;DHT22;8604;48.148;-1.786;2022-09-09T09:15:48;20.00;99.90
16976;DHT22;8604;48.148;-1.786;2022-09-09T09:18:18;19.90;99.90
16976;DHT22;8604;48.148;-1.786;2022-09-09T09:21:00;19.80;99.90
16976;DHT22;8604;48.148;-1.786;2022-09-09T09:23:40;19.80;99.90
16976;DHT22;8604;48.148;-1.786;2022-09-09T09:26:11;19.70;99.90
16976;DHT22;8604;48.148;-1.786;2022-09-09T09:28:42;20.40;99.90
16976;DHT22;8604;48.148;-1.786;2022-09-09T09:31:14;20.80;99.90
16976;DHT22;8604;48.148;-1.786;2022-09-09T09:33:48;21.60;99.90
16976;DHT22;8604;48.148;-1.786;2022-09-09T09:39:39;23.10;99.90
16976;DHT22;8604;48.148;-1.786;2022-09-09T09:42:28;23.40;99.90
16976;DHT22;8604;48.148;-1.786;2022-09-09T09:45:07;23.20;99.90
16976;DHT22;8604;48.148;-1.786;2022-09-09T09:48:01;22.80;99.90
16976;DHT22;8604;48.148;-1.786;2022-09-09T09:50:39;22.70;99.90
16976;DHT22;8604;48.148;-1.786;2022-09-09T09:53:21;22.60;99.90
16976;DHT22;8604;48.148;-1.786;2022-09-09T09:55:56;23.50;99.90
16976;DHT22;8604;48.148;-1.786;2022-09-09T09:58:27;24.10;99.90
16976;DHT22;8604;48.148;-1.786;2022-09-09T10:00:59;24.70;99.90
16976;DHT22;8604;48.148;-1.786;2022-09-09T10:03:31;25.40;99.90
16976;DHT22;8604;48.148;-1.786;2022-09-09T10:06:05;25.60;99.90
16976;DHT22;8604;48.148;-1.786;2022-09-09T10:08:43;25.60;99.90
16976;DHT22;8604;48.148;-1.786;2022-09-09T10:11:27;25.80;99.90
16976;DHT22;8604;48.148;-1.786;2022-09-09T10:14:05;25.40;99.90
16976;DHT22;8604;48.148;-1.786;2022-09-09T10:16:45;24.90;99.90
16976;DHT22;8604;48.148;-1.786;2022-09-09T10:19:20;24.40;99.90
16976;DHT22;8604;48.148;-1.786;2022-09-09T10:22:14;23.90;99.90
16976;DHT22;8604;48.148;-1.786;2022-09-09T10:27:44;23.20;99.90
16976;DHT22;8604;48.148;-1.786;2022-09-09T10:30:29;22.90;99.90
16976;DHT22;8604;48.148;-1.786;2022-09-09T10:33:04;22.70;99.90
16976;DHT22;8604;48.148;-1.786;2022-09-09T10:36:21;22.70;99.90
16976;DHT22;8604;48.148;-1.786;2022-09-09T10:38:57;22.60;99.90
16976;DHT22;8604;48.148;-1.786;2022-09-09T10:41:42;22.20;99.90
16976;DHT22;8604;48.148;-1.786;2022-09-09T10:44:22;21.90;99.90
16976;DHT22;8604;48.148;-1.786;2022-09-09T10:47:16;21.80;99.90
16976;DHT22;8604;48.148;-1.786;2022-09-09T10:50:09;21.70;99.90
16976;DHT22;8604;48.148;-1.786;2022-09-09T10:52:45;21.70;99.90
16976;DHT22;8604;48.148;-1.786;2022-09-09T10:55:18;22.00;99.90
16976;DHT22;8604;48.148;-1.786;2022-09-09T10:57:50;23.00;99.90
16976;DHT22;8604;48.148;-1.786;2022-09-09T11:00:22;23.20;99.90
16976;DHT22;8604;48.148;-1.786;2022-09-09T11:02:55;23.30;99.90
16976;DHT22;8604;48.148;-1.786;2022-09-09T11:05:29;23.50;99.90
16976;DHT22;8604;48.148;-1.786;2022-09-09T11:08:04;23.50;99.90
16976;DHT22;8604;48.148;-1.786;2022-09-09T11:10:39;23.30;99.90
16976;DHT22;8604;48.148;-1.786;2022-09-09T11:13:14;23.10;99.90
16976;DHT22;8604;48.148;-1.786;2022-09-09T11:15:49;23.20;99.90
16976;DHT22;8604;48.148;-1.786;2022-09-09T11:18:21;23.50;99.90
16976;DHT22;8604;48.148;-1.786;2022-09-09T11:20:57;23.30;99.90
16976;DHT22;8604;48.148;-1.786;2022-09-09T11:23:40;23.30;99.90
16976;DHT22;8604;48.148;-1.786;2022-09-09T11:26:16;23.00;99.90
16976;DHT22;8604;48.148;-1.786;2022-09-09T11:28:58;22.70;99.90
16976;DHT22;8604;48.148;-1.786;2022-09-09T11:31:44;22.70;99.90
16976;DHT22;8604;48.148;-1.786;2022-09-09T11:34:27;22.80;99.90
16976;DHT22;8604;48.148;-1.786;2022-09-09T11:37:11;22.80;99.90
16976;DHT22;8604;48.148;-1.786;2022-09-09T11:40:00;22.90;99.90
16976;DHT22;8604;48.148;-1.786;2022-09-09T11:42:34;22.70;99.90
16976;DHT22;8604;48.148;-1.786;2022-09-09T11:45:11;22.70;99.90
16976;DHT22;8604;48.148;-1.786;2022-09-09T11:47:53;22.90;99.90
16976;DHT22;8604;48.148;-1.786;2022-09-09T11:50:37;23.10;99.90
16976;DHT22;8604;48.148;-1.786;2022-09-09T11:53:21;23.10;99.90
16976;DHT22;8604;48.148;-1.786;2022-09-09T11:56:10;23.40;99.90
16976;DHT22;8604;48.148;-1.786;2022-09-09T11:58:44;23.30;99.90
16976;DHT22;8604;48.148;-1.786;2022-09-09T12:01:33;23.40;99.90
16976;DHT22;8604;48.148;-1.786;2022-09-09T12:04:13;23.40;99.90
16976;DHT22;8604;48.148;-1.786;2022-09-09T12:06:51;23.50;99.90
16976;DHT22;8604;48.148;-1.786;2022-09-09T12:09:25;23.60;99.90
16976;DHT22;8604;48.148;-1.786;2022-09-09T12:12:06;23.80;99.90
16976;DHT22;8604;48.148;-1.786;2022-09-09T12:14:37;23.90;99.90
16976;DHT22;8604;48.148;-1.786;2022-09-09T12:17:19;24.20;99.90
16976;DHT22;8604;48.148;-1.786;2022-09-09T12:20:01;24.30;99.90
16976;DHT22;8604;48.148;-1.786;2022-09-09T12:22:38;24.50;99.90
16976;DHT22;8604;48.148;-1.786;2022-09-09T12:25:18;24.70;99.90
16976;DHT22;8604;48.148;-1.786;2022-09-09T12:28:00;24.80;99.90
16976;DHT22;8604;48.148;-1.786;2022-09-09T12:30:33;24.80;99.90
16976;DHT22;8604;48.148;-1.786;2022-09-09T12:33:10;24.60;99.90
16976;DHT22;8604;48.148;-1.786;2022-09-09T12:36:02;24.70;99.90
16976;DHT22;8604;48.148;-1.786;2022-09-09T12:38:34;24.70;99.90
16976;DHT22;8604;48.148;-1.786;2022-09-09T12:41:03;24.70;99.90
16976;DHT22;8604;48.148;-1.786;2022-09-09T12:44:03;24.60;99.90
16976;DHT22;8604;48.148;-1.786;2022-09-09T12:46:35;24.40;99.90
16976;DHT22;8604;48.148;-1.786;2022-09-09T12:49:04;24.30;99.90
16976;DHT22;8604;48.148;-1.786;2022-09-09T12:51:35;24.10;99.90
16976;DHT22;8604;48.148;-1.786;2022-09-09T12:54:04;23.90;99.90
16976;DHT22;8604;48.148;-1.786;2022-09-09T12:56:33;23.80;99.90
16976;DHT22;8604;48.148;-1.786;2022-09-09T12:59:02;23.90;99.90
16976;DHT22;8604;48.148;-1.786;2022-09-09T13:01:31;23.90;99.90
16976;DHT22;8604;48.148;-1.786;2022-09-09T13:04:01;24.00;99.90
16976;DHT22;8604;48.148;-1.786;2022-09-09T13:06:30;23.90;99.90
16976;DHT22;8604;48.148;-1.786;2022-09-09T13:09:01;24.00;99.90
16976;DHT22;8604;48.148;-1.786;2022-09-09T13:11:34;24.10;99.90
16976;DHT22;8604;48.148;-1.786;2022-09-09T13:14:05;23.90;99.90
16976;DHT22;8604;48.148;-1.786;2022-09-09T13:16:35;23.80;99.90
16976;DHT22;8604;48.148;-1.786;2022-09-09T13:19:13;23.60;99.90
16976;DHT22;8604;48.148;-1.786;2022-09-09T13:21:43;23.30;99.90
16976;DHT22;8604;48.148;-1.786;2022-09-09T13:24:27;22.90;99.90
16976;DHT22;8604;48.148;-1.786;2022-09-09T13:26:57;22.50;99.90
16976;DHT22;8604;48.148;-1.786;2022-09-09T13:29:25;22.20;99.90
16976;DHT22;8604;48.148;-1.786;2022-09-09T13:31:54;21.90;99.90
16976;DHT22;8604;48.148;-1.786;2022-09-09T13:34:33;21.60;99.90
16976;DHT22;8604;48.148;-1.786;2022-09-09T13:37:04;21.20;99.90
16976;DHT22;8604;48.148;-1.786;2022-09-09T13:39:36;20.90;99.90
16976;DHT22;8604;48.148;-1.786;2022-09-09T13:42:05;20.70;99.90
16976;DHT22;8604;48.148;-1.786;2022-09-09T13:44:38;20.40;99.90
16976;DHT22;8604;48.148;-1.786;2022-09-09T13:47:18;19.90;99.90
16976;DHT22;8604;48.148;-1.786;2022-09-09T13:49:47;19.70;99.90
16976;DHT22;8604;48.148;-1.786;2022-09-09T13:52:17;19.60;99.90
16976;DHT22;8604;48.148;-1.786;2022-09-09T13:54:49;19.70;99.90
16976;DHT22;8604;48.148;-1.786;2022-09-09T13:57:20;19.70;99.90
16976;DHT22;8604;48.148;-1.786;2022-09-09T13:59:49;19.70;99.90
16976;DHT22;8604;48.148;-1.786;2022-09-09T14:02:30;19.80;99.90
16976;DHT22;8604;48.148;-1.786;2022-09-09T14:04:59;19.90;99.90
16976;DHT22;8604;48.148;-1.786;2022-09-09T14:07:28;20.00;99.90
16976;DHT22;8604;48.148;-1.786;2022-09-09T14:09:57;20.10;99.90
16976;DHT22;8604;48.148;-1.786;2022-09-09T14:12:27;20.10;99.90
16976;DHT22;8604;48.148;-1.786;2022-09-09T14:14:55;20.30;99.90
16976;DHT22;8604;48.148;-1.786;2022-09-09T14:17:24;20.30;99.90
16976;DHT22;8604;48.148;-1.786;2022-09-09T14:19:58;20.40;99.90
16976;DHT22;8604;48.148;-1.786;2022-09-09T14:22:26;20.40;99.90
16976;DHT22;8604;48.148;-1.786;2022-09-09T14:24:56;20.40;99.90
16976;DHT22;8604;48.148;-1.786;2022-09-09T14:27:25;20.20;99.90
16976;DHT22;8604;48.148;-1.786;2022-09-09T14:29:55;20.10;99.90
16976;DHT22;8604;48.148;-1.786;2022-09-09T14:32:38;20.00;99.90
16976;DHT22;8604;48.148;-1.786;2022-09-09T14:35:07;19.90;99.90
16976;DHT22;8604;48.148;-1.786;2022-09-09T14:37:36;19.60;99.90
16976;DHT22;8604;48.148;-1.786;2022-09-09T14:40:08;19.50;99.90
16976;DHT22;8604;48.148;-1.786;2022-09-09T14:42:38;19.40;99.90
16976;DHT22;8604;48.148;-1.786;2022-09-09T14:45:07;19.40;99.90
16976;DHT22;8604;48.148;-1.786;2022-09-09T14:47:50;19.40;99.90
16976;DHT22;8604;48.148;-1.786;2022-09-09T14:50:20;19.50;99.90
16976;DHT22;8604;48.148;-1.786;2022-09-09T14:52:48;19.60;99.90
16976;DHT22;8604;48.148;-1.786;2022-09-09T14:55:32;19.70;99.90
16976;DHT22;8604;48.148;-1.786;2022-09-09T14:58:01;19.80;99.90
16976;DHT22;8604;48.148;-1.786;2022-09-09T15:00:29;19.80;99.90
16976;DHT22;8604;48.148;-1.786;2022-09-09T15:02:58;19.80;99.90
16976;DHT22;8604;48.148;-1.786;2022-09-09T15:05:27;19.70;99.90
16976;DHT22;8604;48.148;-1.786;2022-09-09T15:07:55;19.70;99.90
16976;DHT22;8604;48.148;-1.786;2022-09-09T15:10:25;19.70;99.90
16976;DHT22;8604;48.148;-1.786;2022-09-09T15:12:55;19.60;99.90
16976;DHT22;8604;48.148;-1.786;2022-09-09T15:15:24;19.70;99.90
16976;DHT22;8604;48.148;-1.786;2022-09-09T15:17:53;19.70;99.90
16976;DHT22;8604;48.148;-1.786;2022-09-09T15:20:22;19.60;99.90
16976;DHT22;8604;48.148;-1.786;2022-09-09T15:22:50;19.50;99.90
16976;DHT22;8604;48.148;-1.786;2022-09-09T15:25:19;19.60;99.90
16976;DHT22;8604;48.148;-1.786;2022-09-09T15:27:48;19.60;99.90
16976;DHT22;8604;48.148;-1.786;2022-09-09T15:30:18;19.60;99.90
16976;DHT22;8604;48.148;-1.786;2022-09-09T15:32:47;19.70;99.90
16976;DHT22;8604;48.148;-1.786;2022-09-09T15:35:16;19.80;99.90
16976;DHT22;8604;48.148;-1.786;2022-09-09T15:37:44;20.00;99.90
16976;DHT22;8604;48.148;-1.786;2022-09-09T15:40:13;20.00;99.90
16976;DHT22;8604;48.148;-1.786;2022-09-09T15:42:41;20.00;99.90
16976;DHT22;8604;48.148;-1.786;2022-09-09T15:45:10;20.10;99.90
16976;DHT22;8604;48.148;-1.786;2022-09-09T15:47:54;20.00;99.90
16976;DHT22;8604;48.148;-1.786;2022-09-09T15:50:22;20.10;99.90
16976;DHT22;8604;48.148;-1.786;2022-09-09T15:52:50;20.10;99.90
16976;DHT22;8604;48.148;-1.786;2022-09-09T15:55:20;20.00;99.90
16976;DHT22;8604;48.148;-1.786;2022-09-09T15:57:49;20.10;99.90
16976;DHT22;8604;48.148;-1.786;2022-09-09T16:00:19;20.10;99.90
16976;DHT22;8604;48.148;-1.786;2022-09-09T16:02:48;20.20;99.90
16976;DHT22;8604;48.148;-1.786;2022-09-09T16:05:18;20.20;99.90
16976;DHT22;8604;48.148;-1.786;2022-09-09T16:07:47;20.20;99.90
16976;DHT22;8604;48.148;-1.786;2022-09-09T16:10:16;20.10;99.90
16976;DHT22;8604;48.148;-1.786;2022-09-09T16:12:45;20.10;99.90
16976;DHT22;8604;48.148;-1.786;2022-09-09T16:15:13;20.00;99.90
16976;DHT22;8604;48.148;-1.786;2022-09-09T16:17:42;20.10;99.90
16976;DHT22;8604;48.148;-1.786;2022-09-09T16:20:11;20.00;99.90
16976;DHT22;8604;48.148;-1.786;2022-09-09T16:22:43;19.90;99.90
16976;DHT22;8604;48.148;-1.786;2022-09-09T16:25:11;19.80;99.90
16976;DHT22;8604;48.148;-1.786;2022-09-09T16:28:03;19.70;99.90